Flagstaff, AZ

10:14 PM MST on August 28, 2014 (GMT -0700)
Flagstaff Pulliam | Change Station
CLOSE
Current Station
Airport
Location: Flagstaff,
Elevation: 7011 ft
Nearby Weather Stations

Elev 7011 ft 35.14 °N, 111.67 °W | Updated 17 minutes ago

Clear
Clear
53 °F
Feels Like 53 °F
N
0
Wind Variable Wind from North

Today
High -- | Low -- °F
--% Chance of Precip.
Yesterday
High -- | Low -- °F
Precip. -- in
5:56 AM 6:58 PM
Waxing Crescent, 12% visible
Pressure 30.05 in
Visibility 10.0 miles
Clouds Clear
Dew Point 43 °F
Humidity 69%
Rainfall 0.00 in
Snow Depth Not available.
UV 0 out of 12
Pollen 6.50 out of 12
Air Quality Not available.
Flu Activity Not available.
METAR KFLG 290457Z AUTO 00000KT 10SM CLR 12/06 A3032 RMK AO2 SLP176 T01170061 TSNO

More Conditions Fewer Conditions

Pressure 30.05 in
Visibility 10.0 miles
Clouds Clear
Dew Point 43 °F
Humidity 69%
Rainfall 0.00 in
Snow Depth Not available.
UV 0 out of 12
Pollen 6.50 out of 12
Air Quality Not available.
Flu Activity Not available.
METAR KFLG 290457Z AUTO 00000KT 10SM CLR 12/06 A3032 RMK AO2 SLP176 T01170061 TSNO

More Conditions Fewer Conditions

10-Day Weather Forecast

Almanac

Astronomy

Aug. 28, 2014 Rise Set
Actual Time 5:56 AM MST 6:58 PM MST
Civil Twilight 5:30 AM MST 7:24 PM MST
Nautical Twilight 4:59 AM MST 7:55 PM MST
Astronomical Twilight 4:27 AM MST 8:27 PM MST
Moon 8:44 AM MST (8/28) 8:33 PM MST (8/28)
Length of Visible Light 13h 54m
Length of Day
13h 02m
Tomorrow will be 2m 4s shorter.
Waxing Crescent, 12% of the Moon is Illuminated
Aug 29
Waxing Crescent
Sep 2
First Quarter
Sep 8
Full
Sep 15
Last Quarter
Sep 24
New

Yesterday's Extremes

State Highs State Lows

Community

WunderPhotos

Upload Photos

1,748,192 photos uploaded!

Nearby

Snow Depth

Station Depth Elevation
White Horse Lake 0 in 7180 ft
Snowslide Canyon 0 in 9730 ft
Workman Creek 1 in 6900 ft
Maverick Fork 0 in 9200 ft
Beaver Head 17 in 7990 ft

Earthquake Activity

City Distance Mag. Time & Date
No recent earthquake activity has been reported nearby.
Minimum magnitude displayed is 2.5.

Coastal Water Temperatures

Place Temperature
No Stations Reporting

Nearby Weather Stations